sensor_id;sensor_type;location;lat;lon;timestamp;pressure;altitude;pressure_sealevel;temperature;humidity
38033;BME280;23841;48.524;1.342;2022-07-10T00:02:05;100239.34;;;25.11;nan
38033;BME280;23841;48.524;1.342;2022-07-10T00:04:31;100224.78;;;25.12;nan
38033;BME280;23841;48.524;1.342;2022-07-10T00:06:57;100235.56;;;25.14;nan
38033;BME280;23841;48.524;1.342;2022-07-10T00:09:24;100225.19;;;25.06;nan
38033;BME280;23841;48.524;1.342;2022-07-10T00:11:52;100224.97;;;25.09;nan
38033;BME280;23841;48.524;1.342;2022-07-10T00:14:18;100222.56;;;25.04;nan
38033;BME280;23841;48.524;1.342;2022-07-10T00:16:45;100275.28;;;25.02;nan
38033;BME280;23841;48.524;1.342;2022-07-10T00:19:10;100234.41;;;25.03;nan
38033;BME280;23841;48.524;1.342;2022-07-10T00:21:36;100224.81;;;24.98;nan
38033;BME280;23841;48.524;1.342;2022-07-10T00:24:02;100210.06;;;25.02;nan
38033;BME280;23841;48.524;1.342;2022-07-10T00:26:27;100249.97;;;25.01;nan
38033;BME280;23841;48.524;1.342;2022-07-10T00:28:52;100222.00;;;24.99;nan
38033;BME280;23841;48.524;1.342;2022-07-10T00:31:18;100217.75;;;24.95;nan
38033;BME280;23841;48.524;1.342;2022-07-10T00:33:44;100231.16;;;24.98;nan
38033;BME280;23841;48.524;1.342;2022-07-10T00:36:09;100243.97;;;24.96;nan
38033;BME280;23841;48.524;1.342;2022-07-10T00:38:35;100225.03;;;24.95;nan
38033;BME280;23841;48.524;1.342;2022-07-10T00:41:00;100237.94;;;24.91;nan
38033;BME280;23841;48.524;1.342;2022-07-10T00:43:26;100232.41;;;24.93;nan
38033;BME280;23841;48.524;1.342;2022-07-10T00:45:51;100218.19;;;24.89;nan
38033;BME280;23841;48.524;1.342;2022-07-10T00:48:17;100247.97;;;24.91;nan
38033;BME280;23841;48.524;1.342;2022-07-10T00:50:44;100243.13;;;24.81;nan
38033;BME280;23841;48.524;1.342;2022-07-10T00:53:13;100242.72;;;24.87;nan
38033;BME280;23841;48.524;1.342;2022-07-10T00:55:40;100222.94;;;24.85;nan
38033;BME280;23841;48.524;1.342;2022-07-10T00:58:07;100210.34;;;24.84;nan
38033;BME280;23841;48.524;1.342;2022-07-10T01:00:35;100213.25;;;24.81;nan
38033;BME280;23841;48.524;1.342;2022-07-10T01:03:03;100239.44;;;24.82;nan
38033;BME280;23841;48.524;1.342;2022-07-10T01:05:28;100228.56;;;24.82;nan
38033;BME280;23841;48.524;1.342;2022-07-10T01:07:54;100208.81;;;24.80;nan
38033;BME280;23841;48.524;1.342;2022-07-10T01:10:19;100233.03;;;24.83;nan
38033;BME280;23841;48.524;1.342;2022-07-10T01:12:47;100212.69;;;24.76;nan
38033;BME280;23841;48.524;1.342;2022-07-10T01:15:13;100248.59;;;24.67;nan
38033;BME280;23841;48.524;1.342;2022-07-10T01:17:38;100256.75;;;24.67;nan
38033;BME280;23841;48.524;1.342;2022-07-10T01:20:07;100228.53;;;24.69;nan
38033;BME280;23841;48.524;1.342;2022-07-10T01:22:33;100220.47;;;24.68;nan
38033;BME280;23841;48.524;1.342;2022-07-10T01:24:59;100206.13;;;24.66;nan
38033;BME280;23841;48.524;1.342;2022-07-10T01:27:24;100214.66;;;24.60;nan
38033;BME280;23841;48.524;1.342;2022-07-10T01:29:50;100236.19;;;24.63;nan
38033;BME280;23841;48.524;1.342;2022-07-10T01:32:16;100222.78;;;24.60;nan
38033;BME280;23841;48.524;1.342;2022-07-10T01:34:42;100192.13;;;24.58;nan
38033;BME280;23841;48.524;1.342;2022-07-10T01:37:07;100190.41;;;24.57;nan
38033;BME280;23841;48.524;1.342;2022-07-10T01:39:33;100183.19;;;24.43;nan
38033;BME280;23841;48.524;1.342;2022-07-10T01:41:58;100194.31;;;24.52;nan
38033;BME280;23841;48.524;1.342;2022-07-10T01:44:24;100209.53;;;24.41;nan
38033;BME280;23841;48.524;1.342;2022-07-10T01:46:49;100198.28;;;24.47;nan
38033;BME280;23841;48.524;1.342;2022-07-10T01:49:15;100223.59;;;24.47;nan
38033;BME280;23841;48.524;1.342;2022-07-10T01:51:41;100352.41;;;24.43;nan
38033;BME280;23841;48.524;1.342;2022-07-10T01:54:07;100229.13;;;24.46;nan
38033;BME280;23841;48.524;1.342;2022-07-10T01:56:33;100245.53;;;24.44;nan
38033;BME280;23841;48.524;1.342;2022-07-10T01:58:58;100199.00;;;24.36;nan
38033;BME280;23841;48.524;1.342;2022-07-10T02:01:25;100189.00;;;24.36;nan
38033;BME280;23841;48.524;1.342;2022-07-10T02:03:51;100258.53;;;24.39;nan
38033;BME280;23841;48.524;1.342;2022-07-10T02:06:35;100170.69;;;24.26;nan
38033;BME280;23841;48.524;1.342;2022-07-10T02:09:00;100190.75;;;24.37;nan
38033;BME280;23841;48.524;1.342;2022-07-10T02:11:25;100198.09;;;24.35;nan
38033;BME280;23841;48.524;1.342;2022-07-10T02:13:51;100208.19;;;24.33;nan
38033;BME280;23841;48.524;1.342;2022-07-10T02:16:16;100209.06;;;24.34;nan
38033;BME280;23841;48.524;1.342;2022-07-10T02:18:42;100236.53;;;24.29;nan
38033;BME280;23841;48.524;1.342;2022-07-10T02:21:08;100181.16;;;24.32;nan
38033;BME280;23841;48.524;1.342;2022-07-10T02:23:34;100202.09;;;24.30;nan
38033;BME280;23841;48.524;1.342;2022-07-10T02:25:59;100192.41;;;24.26;nan
38033;BME280;23841;48.524;1.342;2022-07-10T02:28:25;100199.38;;;24.30;nan
38033;BME280;23841;48.524;1.342;2022-07-10T02:30:50;100207.63;;;24.28;nan
38033;BME280;23841;48.524;1.342;2022-07-10T02:33:15;100174.19;;;24.28;nan
38033;BME280;23841;48.524;1.342;2022-07-10T02:35:41;100207.81;;;24.25;nan
38033;BME280;23841;48.524;1.342;2022-07-10T02:38:06;100183.50;;;24.24;nan
38033;BME280;23841;48.524;1.342;2022-07-10T02:40:32;100312.94;;;24.23;nan
38033;BME280;23841;48.524;1.342;2022-07-10T02:42:57;100231.00;;;24.16;nan
38033;BME280;23841;48.524;1.342;2022-07-10T02:45:22;100184.56;;;24.21;nan
38033;BME280;23841;48.524;1.342;2022-07-10T02:47:48;100175.72;;;24.17;nan
38033;BME280;23841;48.524;1.342;2022-07-10T02:50:13;100182.91;;;24.18;nan
38033;BME280;23841;48.524;1.342;2022-07-10T02:52:39;100160.59;;;24.13;nan
38033;BME280;23841;48.524;1.342;2022-07-10T02:55:04;100167.78;;;24.14;nan
38033;BME280;23841;48.524;1.342;2022-07-10T02:57:30;100175.19;;;24.12;nan
38033;BME280;23841;48.524;1.342;2022-07-10T02:59:55;100177.88;;;24.12;nan
38033;BME280;23841;48.524;1.342;2022-07-10T03:02:21;100157.34;;;24.08;nan
38033;BME280;23841;48.524;1.342;2022-07-10T03:04:46;100220.81;;;24.06;nan
38033;BME280;23841;48.524;1.342;2022-07-10T03:07:11;100164.81;;;24.05;nan
38033;BME280;23841;48.524;1.342;2022-07-10T03:09:37;100158.63;;;24.02;nan
38033;BME280;23841;48.524;1.342;2022-07-10T03:12:03;100175.00;;;24.01;nan
38033;BME280;23841;48.524;1.342;2022-07-10T03:14:28;100181.75;;;23.94;nan
38033;BME280;23841;48.524;1.342;2022-07-10T03:16:54;100170.75;;;23.97;nan
38033;BME280;23841;48.524;1.342;2022-07-10T03:19:19;100181.59;;;23.97;nan
38033;BME280;23841;48.524;1.342;2022-07-10T03:21:44;100184.41;;;23.95;nan
38033;BME280;23841;48.524;1.342;2022-07-10T03:24:11;100179.03;;;23.94;nan
38033;BME280;23841;48.524;1.342;2022-07-10T03:26:36;100181.97;;;23.91;nan
38033;BME280;23841;48.524;1.342;2022-07-10T03:29:02;100167.63;;;23.89;nan
38033;BME280;23841;48.524;1.342;2022-07-10T03:31:27;100250.16;;;23.84;nan
38033;BME280;23841;48.524;1.342;2022-07-10T03:33:53;100158.69;;;23.86;nan
38033;BME280;23841;48.524;1.342;2022-07-10T03:36:19;100187.59;;;23.88;nan
38033;BME280;23841;48.524;1.342;2022-07-10T03:38:44;100175.94;;;23.85;nan
38033;BME280;23841;48.524;1.342;2022-07-10T03:41:12;100161.50;;;23.85;nan
38033;BME280;23841;48.524;1.342;2022-07-10T03:43:37;100177.00;;;23.83;nan
38033;BME280;23841;48.524;1.342;2022-07-10T03:46:03;100144.34;;;23.84;nan
38033;BME280;23841;48.524;1.342;2022-07-10T03:48:28;100163.16;;;23.73;nan
38033;BME280;23841;48.524;1.342;2022-07-10T03:50:54;100180.38;;;23.72;nan
38033;BME280;23841;48.524;1.342;2022-07-10T03:53:19;100125.34;;;23.56;nan
38033;BME280;23841;48.524;1.342;2022-07-10T03:55:45;100164.09;;;23.86;nan
38033;BME280;23841;48.524;1.342;2022-07-10T03:58:10;100155.56;;;23.78;nan
38033;BME280;23841;48.524;1.342;2022-07-10T04:00:36;100167.41;;;23.77;nan
38033;BME280;23841;48.524;1.342;2022-07-10T04:03:06;100190.06;;;23.76;nan
38033;BME280;23841;48.524;1.342;2022-07-10T04:05:33;100173.81;;;23.76;nan
38033;BME280;23841;48.524;1.342;2022-07-10T04:08:00;100181.16;;;23.74;nan
38033;BME280;23841;48.524;1.342;2022-07-10T04:10:27;100170.28;;;23.74;nan
38033;BME280;23841;48.524;1.342;2022-07-10T04:12:53;100199.38;;;23.72;nan
38033;BME280;23841;48.524;1.342;2022-07-10T04:15:19;100197.63;;;23.71;nan
38033;BME280;23841;48.524;1.342;2022-07-10T04:17:46;100189.47;;;23.71;nan
38033;BME280;23841;48.524;1.342;2022-07-10T04:20:12;100278.22;;;23.69;nan
38033;BME280;23841;48.524;1.342;2022-07-10T04:22:38;100225.91;;;23.67;nan
38033;BME280;23841;48.524;1.342;2022-07-10T04:25:04;100228.63;;;23.67;nan
38033;BME280;23841;48.524;1.342;2022-07-10T04:27:30;100160.00;;;23.50;nan
38033;BME280;23841;48.524;1.342;2022-07-10T04:29:56;100198.97;;;23.64;nan
38033;BME280;23841;48.524;1.342;2022-07-10T04:32:21;100199.94;;;23.63;nan
38033;BME280;23841;48.524;1.342;2022-07-10T04:34:47;100255.06;;;23.63;nan
38033;BME280;23841;48.524;1.342;2022-07-10T04:37:12;100194.50;;;23.63;nan
38033;BME280;23841;48.524;1.342;2022-07-10T04:39:38;100199.19;;;23.61;nan
38033;BME280;23841;48.524;1.342;2022-07-10T04:42:05;100194.00;;;23.56;nan
38033;BME280;23841;48.524;1.342;2022-07-10T04:44:30;100185.81;;;23.58;nan
38033;BME280;23841;48.524;1.342;2022-07-10T04:46:56;100189.38;;;23.58;nan
38033;BME280;23841;48.524;1.342;2022-07-10T04:49:21;100203.03;;;23.57;nan
38033;BME280;23841;48.524;1.342;2022-07-10T04:51:47;100205.75;;;23.57;nan
38033;BME280;23841;48.524;1.342;2022-07-10T04:54:13;100233.31;;;23.49;nan
38033;BME280;23841;48.524;1.342;2022-07-10T04:56:38;100193.16;;;23.56;nan
38033;BME280;23841;48.524;1.342;2022-07-10T04:59:03;100200.53;;;23.54;nan
38033;BME280;23841;48.524;1.342;2022-07-10T05:01:29;100205.06;;;23.53;nan
38033;BME280;23841;48.524;1.342;2022-07-10T05:03:54;100158.28;;;23.49;nan
38033;BME280;23841;48.524;1.342;2022-07-10T05:06:20;100201.59;;;23.51;nan
38033;BME280;23841;48.524;1.342;2022-07-10T05:08:45;100186.38;;;23.48;nan
38033;BME280;23841;48.524;1.342;2022-07-10T05:11:11;100262.47;;;97.73;nan
38033;BME280;23841;48.524;1.342;2022-07-10T05:13:37;100202.84;;;23.45;nan
38033;BME280;23841;48.524;1.342;2022-07-10T05:16:04;100193.81;;;23.45;nan
38033;BME280;23841;48.524;1.342;2022-07-10T05:18:30;100220.06;;;23.44;nan
38033;BME280;23841;48.524;1.342;2022-07-10T05:20:55;100178.59;;;23.42;nan
38033;BME280;23841;48.524;1.342;2022-07-10T05:23:21;100162.81;;;23.34;nan
38033;BME280;23841;48.524;1.342;2022-07-10T05:25:46;100182.38;;;23.40;nan
38033;BME280;23841;48.524;1.342;2022-07-10T05:28:11;100185.16;;;23.38;nan
38033;BME280;23841;48.524;1.342;2022-07-10T05:30:41;100174.41;;;23.37;nan
38033;BME280;23841;48.524;1.342;2022-07-10T05:33:06;100216.94;;;23.36;nan
38033;BME280;23841;48.524;1.342;2022-07-10T05:35:32;100228.75;;;23.35;nan
38033;BME280;23841;48.524;1.342;2022-07-10T05:37:58;100200.78;;;23.34;nan
38033;BME280;23841;48.524;1.342;2022-07-10T05:40:23;100259.69;;;23.31;nan
38033;BME280;23841;48.524;1.342;2022-07-10T05:42:49;100199.22;;;23.30;nan
38033;BME280;23841;48.524;1.342;2022-07-10T05:45:14;100191.94;;;23.31;nan
38033;BME280;23841;48.524;1.342;2022-07-10T05:47:40;100179.44;;;23.28;nan
38033;BME280;23841;48.524;1.342;2022-07-10T05:50:05;100197.56;;;23.28;nan
38033;BME280;23841;48.524;1.342;2022-07-10T05:52:31;100203.94;;;23.27;nan
38033;BME280;23841;48.524;1.342;2022-07-10T05:54:57;100186.81;;;23.26;nan
38033;BME280;23841;48.524;1.342;2022-07-10T05:57:23;100167.84;;;23.26;nan
38033;BME280;23841;48.524;1.342;2022-07-10T05:59:49;100195.03;;;23.25;nan
38033;BME280;23841;48.524;1.342;2022-07-10T06:02:14;100200.56;;;23.23;nan
38033;BME280;23841;48.524;1.342;2022-07-10T06:04:41;100166.38;;;23.21;nan
38033;BME280;23841;48.524;1.342;2022-07-10T06:07:07;100189.81;;;23.22;nan
38033;BME280;23841;48.524;1.342;2022-07-10T06:09:32;100173.63;;;23.04;nan
38033;BME280;23841;48.524;1.342;2022-07-10T06:11:58;100182.91;;;23.16;nan
38033;BME280;23841;48.524;1.342;2022-07-10T06:14:23;100198.03;;;23.20;nan
38033;BME280;23841;48.524;1.342;2022-07-10T06:16:49;100168.47;;;23.15;nan
38033;BME280;23841;48.524;1.342;2022-07-10T06:19:14;100178.16;;;23.20;nan
38033;BME280;23841;48.524;1.342;2022-07-10T06:21:42;100195.38;;;23.18;nan
38033;BME280;23841;48.524;1.342;2022-07-10T06:24:08;100195.38;;;23.18;nan
38033;BME280;23841;48.524;1.342;2022-07-10T06:26:33;100167.94;;;23.09;nan
38033;BME280;23841;48.524;1.342;2022-07-10T06:28:58;100175.94;;;23.12;nan
38033;BME280;23841;48.524;1.342;2022-07-10T06:31:24;100202.75;;;23.16;nan
38033;BME280;23841;48.524;1.342;2022-07-10T06:33:49;100197.44;;;23.15;nan
38033;BME280;23841;48.524;1.342;2022-07-10T06:36:16;100195.66;;;23.14;nan
38033;BME280;23841;48.524;1.342;2022-07-10T06:38:41;100175.97;;;23.10;nan
38033;BME280;23841;48.524;1.342;2022-07-10T06:41:07;100212.72;;;23.00;nan
38033;BME280;23841;48.524;1.342;2022-07-10T06:43:32;100180.22;;;23.16;nan
38033;BME280;23841;48.524;1.342;2022-07-10T06:45:58;100196.63;;;23.13;nan
38033;BME280;23841;48.524;1.342;2022-07-10T06:48:24;100175.00;;;23.11;nan
38033;BME280;23841;48.524;1.342;2022-07-10T06:50:51;100192.97;;;23.14;nan
38033;BME280;23841;48.524;1.342;2022-07-10T06:53:17;100190.34;;;23.12;nan
38033;BME280;23841;48.524;1.342;2022-07-10T06:55:43;100210.25;;;23.11;nan
38033;BME280;23841;48.524;1.342;2022-07-10T06:58:08;100168.66;;;23.12;nan
38033;BME280;23841;48.524;1.342;2022-07-10T07:00:34;100198.63;;;23.09;nan
38033;BME280;23841;48.524;1.342;2022-07-10T07:02:59;100183.53;;;23.05;nan
38033;BME280;23841;48.524;1.342;2022-07-10T07:05:25;100172.50;;;23.08;nan
38033;BME280;23841;48.524;1.342;2022-07-10T07:07:50;100188.56;;;23.11;nan
38033;BME280;23841;48.524;1.342;2022-07-10T07:10:16;100193.31;;;23.08;nan
38033;BME280;23841;48.524;1.342;2022-07-10T07:12:41;100181.00;;;23.02;nan
38033;BME280;23841;48.524;1.342;2022-07-10T07:15:07;100196.03;;;23.08;nan
38033;BME280;23841;48.524;1.342;2022-07-10T07:17:39;100180.91;;;23.04;nan
38033;BME280;23841;48.524;1.342;2022-07-10T07:20:23;100190.69;;;23.06;nan
38033;BME280;23841;48.524;1.342;2022-07-10T07:23:07;100209.56;;;23.08;nan
38033;BME280;23841;48.524;1.342;2022-07-10T07:25:35;100206.94;;;23.06;nan
38033;BME280;23841;48.524;1.342;2022-07-10T07:28:02;100197.06;;;23.05;nan
38033;BME280;23841;48.524;1.342;2022-07-10T07:30:27;100222.31;;;23.06;nan
38033;BME280;23841;48.524;1.342;2022-07-10T07:32:53;100198.97;;;23.03;nan
38033;BME280;23841;48.524;1.342;2022-07-10T07:35:18;100182.56;;;23.06;nan
38033;BME280;23841;48.524;1.342;2022-07-10T07:37:45;100179.84;;;23.06;nan
38033;BME280;23841;48.524;1.342;2022-07-10T07:40:13;100188.94;;;23.05;nan
38033;BME280;23841;48.524;1.342;2022-07-10T07:42:39;100190.69;;;23.06;nan
38033;BME280;23841;48.524;1.342;2022-07-10T07:45:07;100160.09;;;23.04;nan
38033;BME280;23841;48.524;1.342;2022-07-10T07:47:44;100162.72;;;23.06;nan
38033;BME280;23841;48.524;1.342;2022-07-10T07:50:14;100218.75;;;23.05;nan
38033;BME280;23841;48.524;1.342;2022-07-10T07:52:40;100171.72;;;23.06;nan
38033;BME280;23841;48.524;1.342;2022-07-10T07:55:06;100187.09;;;23.06;nan
38033;BME280;23841;48.524;1.342;2022-07-10T07:57:31;100172.69;;;23.05;nan
38033;BME280;23841;48.524;1.342;2022-07-10T07:59:57;100156.44;;;23.05;nan
38033;BME280;23841;48.524;1.342;2022-07-10T08:02:22;100174.44;;;23.06;nan
38033;BME280;23841;48.524;1.342;2022-07-10T08:04:48;100169.00;;;23.06;nan
38033;BME280;23841;48.524;1.342;2022-07-10T08:07:14;100186.13;;;23.07;nan
38033;BME280;23841;48.524;1.342;2022-07-10T08:09:39;100163.94;;;23.00;nan
38033;BME280;23841;48.524;1.342;2022-07-10T08:12:05;100181.56;;;23.07;nan
38033;BME280;23841;48.524;1.342;2022-07-10T08:14:30;100173.44;;;23.07;nan
38033;BME280;23841;48.524;1.342;2022-07-10T08:16:56;100167.47;;;23.02;nan
38033;BME280;23841;48.524;1.342;2022-07-10T08:19:21;100117.28;;;22.95;nan
38033;BME280;23841;48.524;1.342;2022-07-10T08:21:47;100173.44;;;23.07;nan
38033;BME280;23841;48.524;1.342;2022-07-10T08:24:12;100169.88;;;23.07;nan
38033;BME280;23841;48.524;1.342;2022-07-10T08:26:40;100168.91;;;23.08;nan
38033;BME280;23841;48.524;1.342;2022-07-10T08:29:05;100152.56;;;23.09;nan
38033;BME280;23841;48.524;1.342;2022-07-10T08:31:31;100167.94;;;23.09;nan
38033;BME280;23841;48.524;1.342;2022-07-10T08:33:59;100172.50;;;23.08;nan
38033;BME280;23841;48.524;1.342;2022-07-10T08:36:25;100198.72;;;23.08;nan
38033;BME280;23841;48.524;1.342;2022-07-10T08:38:52;100172.31;;;23.11;nan
38033;BME280;23841;48.524;1.342;2022-07-10T08:41:24;100178.56;;;23.13;nan
38033;BME280;23841;48.524;1.342;2022-07-10T08:43:50;100165.84;;;23.14;nan
38033;BME280;23841;48.524;1.342;2022-07-10T08:46:17;100193.81;;;23.14;nan
38033;BME280;23841;48.524;1.342;2022-07-10T08:48:47;100174.00;;;23.14;nan
38033;BME280;23841;48.524;1.342;2022-07-10T08:51:18;100182.97;;;23.14;nan
38033;BME280;23841;48.524;1.342;2022-07-10T08:53:49;100176.59;;;23.15;nan
38033;BME280;23841;48.524;1.342;2022-07-10T08:56:16;100167.25;;;23.05;nan
38033;BME280;23841;48.524;1.342;2022-07-10T08:58:42;100154.94;;;23.15;nan
38033;BME280;23841;48.524;1.342;2022-07-10T09:01:08;100140.50;;;23.15;nan
38033;BME280;23841;48.524;1.342;2022-07-10T09:03:35;100126.00;;;23.16;nan
38033;BME280;23841;48.524;1.342;2022-07-10T09:06:04;100131.34;;;23.17;nan
38033;BME280;23841;48.524;1.342;2022-07-10T09:08:30;100137.91;;;23.13;nan
38033;BME280;23841;48.524;1.342;2022-07-10T09:11:15;100130.28;;;23.20;nan
38033;BME280;23841;48.524;1.342;2022-07-10T09:13:53;100136.56;;;23.21;nan
38033;BME280;23841;48.524;1.342;2022-07-10T09:16:27;100114.19;;;23.17;nan
38033;BME280;23841;48.524;1.342;2022-07-10T09:18:58;100132.00;;;23.21;nan
38033;BME280;23841;48.524;1.342;2022-07-10T09:21:38;100141.19;;;23.18;nan
38033;BME280;23841;48.524;1.342;2022-07-10T09:24:08;100107.47;;;23.08;nan
38033;BME280;23841;48.524;1.342;2022-07-10T09:26:35;100109.34;;;23.22;nan
38033;BME280;23841;48.524;1.342;2022-07-10T09:29:12;100121.94;;;23.23;nan
38033;BME280;23841;48.524;1.342;2022-07-10T09:32:00;100133.66;;;23.24;nan
38033;BME280;23841;48.524;1.342;2022-07-10T09:34:47;100115.47;;;23.26;nan
38033;BME280;23841;48.524;1.342;2022-07-10T09:37:29;100122.63;;;23.27;nan
38033;BME280;23841;48.524;1.342;2022-07-10T09:40:05;100111.78;;;23.27;nan
38033;BME280;23841;48.524;1.342;2022-07-10T09:42:33;100094.56;;;23.28;nan
38033;BME280;23841;48.524;1.342;2022-07-10T09:50:41;100119.63;;;23.31;nan
38033;BME280;23841;48.524;1.342;2022-07-10T09:53:07;100103.06;;;23.36;nan
38033;BME280;23841;48.524;1.342;2022-07-10T09:55:36;100061.50;;;23.07;nan
38033;BME280;23841;48.524;1.342;2022-07-10T09:58:03;100104.72;;;23.39;nan
38033;BME280;23841;48.524;1.342;2022-07-10T10:00:37;100091.34;;;23.21;nan
38033;BME280;23841;48.524;1.342;2022-07-10T10:03:07;100075.00;;;23.37;nan
38033;BME280;23841;48.524;1.342;2022-07-10T10:08:17;100099.00;;;23.43;nan
38033;BME280;23841;48.524;1.342;2022-07-10T10:10:49;100122.56;;;23.43;nan
38033;BME280;23841;48.524;1.342;2022-07-10T10:13:20;100099.00;;;23.43;nan
38033;BME280;23841;48.524;1.342;2022-07-10T10:15:47;100112.56;;;23.43;nan
38033;BME280;23841;48.524;1.342;2022-07-10T10:18:17;100091.78;;;23.44;nan
38033;BME280;23841;48.524;1.342;2022-07-10T10:20:43;100089.91;;;23.44;nan
38033;BME280;23841;48.524;1.342;2022-07-10T10:23:13;100067.16;;;23.47;nan
38033;BME280;23841;48.524;1.342;2022-07-10T10:25:39;100101.53;;;23.46;nan
38033;BME280;23841;48.524;1.342;2022-07-10T10:28:08;100100.47;;;23.49;nan
38033;BME280;23841;48.524;1.342;2022-07-10T10:30:40;100116.72;;;23.49;nan
38033;BME280;23841;48.524;1.342;2022-07-10T10:36:03;100093.22;;;23.49;nan
38033;BME280;23841;48.524;1.342;2022-07-10T10:49:50;100088.34;;;23.55;nan
38033;BME280;23841;48.524;1.342;2022-07-10T10:52:18;100071.22;;;23.54;nan
38033;BME280;23841;48.524;1.342;2022-07-10T10:57:33;100056.59;;;23.57;nan
38033;BME280;23841;48.524;1.342;2022-07-10T11:00:13;100046.81;;;23.54;nan
38033;BME280;23841;48.524;1.342;2022-07-10T11:02:40;100051.09;;;23.58;nan
38033;BME280;23841;48.524;1.342;2022-07-10T11:07:53;100052.72;;;23.61;nan
38033;BME280;23841;48.524;1.342;2022-07-10T11:10:41;100062.69;;;23.60;nan
38033;BME280;23841;48.524;1.342;2022-07-10T11:13:10;100041.69;;;23.64;nan
38033;BME280;23841;48.524;1.342;2022-07-10T11:15:48;100039.81;;;23.64;nan
38033;BME280;23841;48.524;1.342;2022-07-10T11:18:21;100070.53;;;23.65;nan
38033;BME280;23841;48.524;1.342;2022-07-10T11:20:56;100058.72;;;23.66;nan
38033;BME280;23841;48.524;1.342;2022-07-10T11:26:35;100042.25;;;23.69;nan
38033;BME280;23841;48.524;1.342;2022-07-10T11:29:04;100046.78;;;23.68;nan
38033;BME280;23841;48.524;1.342;2022-07-10T11:31:32;100043.00;;;23.71;nan
38033;BME280;23841;48.524;1.342;2022-07-10T11:34:09;100060.34;;;23.68;nan
38033;BME280;23841;48.524;1.342;2022-07-10T11:36:38;100022.09;;;23.73;nan
38033;BME280;23841;48.524;1.342;2022-07-10T11:39:06;100032.94;;;23.73;nan
38033;BME280;23841;48.524;1.342;2022-07-10T11:41:33;100024.63;;;23.76;nan
38033;BME280;23841;48.524;1.342;2022-07-10T11:44:03;100019.94;;;23.78;nan
38033;BME280;23841;48.524;1.342;2022-07-10T11:46:31;99984.13;;;23.73;nan
38033;BME280;23841;48.524;1.342;2022-07-10T11:48:58;100080.63;;;23.77;nan
38033;BME280;23841;48.524;1.342;2022-07-10T11:51:28;100011.63;;;23.81;nan
38033;BME280;23841;48.524;1.342;2022-07-10T11:53:55;100041.47;;;23.81;nan
38033;BME280;23841;48.524;1.342;2022-07-10T11:56:21;100026.81;;;23.84;nan
38033;BME280;23841;48.524;1.342;2022-07-10T11:58:57;100050.16;;;23.86;nan
38033;BME280;23841;48.524;1.342;2022-07-10T12:01:24;100013.94;;;23.88;nan
38033;BME280;23841;48.524;1.342;2022-07-10T12:04:00;100046.50;;;23.88;nan
38033;BME280;23841;48.524;1.342;2022-07-10T12:06:26;100012.88;;;23.90;nan
38033;BME280;23841;48.524;1.342;2022-07-10T12:08:52;100029.28;;;23.89;nan
38033;BME280;23841;48.524;1.342;2022-07-10T12:11:19;100024.38;;;23.94;nan
38033;BME280;23841;48.524;1.342;2022-07-10T12:13:45;99996.28;;;23.95;nan
38033;BME280;23841;48.524;1.342;2022-07-10T12:16:12;100029.63;;;23.97;nan
38033;BME280;23841;48.524;1.342;2022-07-10T12:18:39;99992.41;;;23.99;nan
38033;BME280;23841;48.524;1.342;2022-07-10T12:21:08;100041.25;;;23.99;nan
38033;BME280;23841;48.524;1.342;2022-07-10T12:23:34;100016.72;;;24.00;nan
38033;BME280;23841;48.524;1.342;2022-07-10T12:26:00;100023.91;;;24.01;nan
38033;BME280;23841;48.524;1.342;2022-07-10T12:28:28;100030.97;;;24.04;nan
38033;BME280;23841;48.524;1.342;2022-07-10T12:30:54;100040.75;;;24.07;nan
38033;BME280;23841;48.524;1.342;2022-07-10T12:33:22;100033.47;;;24.07;nan
38033;BME280;23841;48.524;1.342;2022-07-10T12:35:54;100017.97;;;24.09;nan
38033;BME280;23841;48.524;1.342;2022-07-10T12:38:28;100020.56;;;24.11;nan
38033;BME280;23841;48.524;1.342;2022-07-10T12:41:10;100026.88;;;24.11;nan
38033;BME280;23841;48.524;1.342;2022-07-10T12:43:36;100017.75;;;24.12;nan
38033;BME280;23841;48.524;1.342;2022-07-10T12:46:26;99991.25;;;24.16;nan
38033;BME280;23841;48.524;1.342;2022-07-10T12:49:10;100005.72;;;24.16;nan
38033;BME280;23841;48.524;1.342;2022-07-10T12:51:50;99991.94;;;24.19;nan
38033;BME280;23841;48.524;1.342;2022-07-10T12:54:36;99996.28;;;24.22;nan
38033;BME280;23841;48.524;1.342;2022-07-10T12:57:03;99990.66;;;24.25;nan
38033;BME280;23841;48.524;1.342;2022-07-10T12:59:35;99961.66;;;24.26;nan
38033;BME280;23841;48.524;1.342;2022-07-10T13:02:20;99989.56;;;24.28;nan
38033;BME280;23841;48.524;1.342;2022-07-10T13:04:54;100011.19;;;24.29;nan
38033;BME280;23841;48.524;1.342;2022-07-10T13:07:20;99998.47;;;24.30;nan
38033;BME280;23841;48.524;1.342;2022-07-10T13:09:53;99994.03;;;24.29;nan
38033;BME280;23841;48.524;1.342;2022-07-10T13:12:19;100003.50;;;24.36;nan
38033;BME280;23841;48.524;1.342;2022-07-10T13:14:44;100005.31;;;24.35;nan
38033;BME280;23841;48.524;1.342;2022-07-10T13:17:10;100003.56;;;24.22;nan
38033;BME280;23841;48.524;1.342;2022-07-10T13:19:35;99993.97;;;24.43;nan
38033;BME280;23841;48.524;1.342;2022-07-10T13:22:01;99974.84;;;24.45;nan
38033;BME280;23841;48.524;1.342;2022-07-10T13:24:26;99982.13;;;24.44;nan
38033;BME280;23841;48.524;1.342;2022-07-10T13:26:53;99988.31;;;24.46;nan
38033;BME280;23841;48.524;1.342;2022-07-10T13:29:20;99974.84;;;24.45;nan
38033;BME280;23841;48.524;1.342;2022-07-10T13:31:46;100000.69;;;24.50;nan
38033;BME280;23841;48.524;1.342;2022-07-10T13:34:12;99982.47;;;24.52;nan
38033;BME280;23841;48.524;1.342;2022-07-10T13:36:38;99967.03;;;24.53;nan
38033;BME280;23841;48.524;1.342;2022-07-10T13:39:03;99983.09;;;24.56;nan
38033;BME280;23841;48.524;1.342;2022-07-10T13:41:28;99989.63;;;24.53;nan
38033;BME280;23841;48.524;1.342;2022-07-10T13:43:54;99999.19;;;24.59;nan
38033;BME280;23841;48.524;1.342;2022-07-10T13:46:19;99976.41;;;24.62;nan